sensor_id;sensor_type;location;lat;lon;timestamp;temperature;humidity
17202;DHT22;8717;53.588;10.176;2023-03-04T00:00:25;4.90;99.90
17202;DHT22;8717;53.588;10.176;2023-03-04T00:02:52;4.90;99.90
17202;DHT22;8717;53.588;10.176;2023-03-04T00:05:19;4.90;99.90
17202;DHT22;8717;53.588;10.176;2023-03-04T00:07:46;4.90;99.90
17202;DHT22;8717;53.588;10.176;2023-03-04T00:10:14;4.90;99.90
17202;DHT22;8717;53.588;10.176;2023-03-04T00:12:41;4.90;99.90
17202;DHT22;8717;53.588;10.176;2023-03-04T00:15:08;4.80;99.90
17202;DHT22;8717;53.588;10.176;2023-03-04T00:17:35;4.90;99.90
17202;DHT22;8717;53.588;10.176;2023-03-04T00:20:03;4.90;99.90
17202;DHT22;8717;53.588;10.176;2023-03-04T00:22:30;5.00;99.90
17202;DHT22;8717;53.588;10.176;2023-03-04T00:24:56;4.90;99.90
17202;DHT22;8717;53.588;10.176;2023-03-04T00:27:25;5.00;99.90
17202;DHT22;8717;53.588;10.176;2023-03-04T00:29:51;5.00;99.90
17202;DHT22;8717;53.588;10.176;2023-03-04T00:32:18;5.00;99.90
17202;DHT22;8717;53.588;10.176;2023-03-04T00:34:45;5.00;99.90
17202;DHT22;8717;53.588;10.176;2023-03-04T00:37:12;5.00;99.90
17202;DHT22;8717;53.588;10.176;2023-03-04T00:39:39;5.00;99.90
17202;DHT22;8717;53.588;10.176;2023-03-04T00:42:06;5.00;99.90
17202;DHT22;8717;53.588;10.176;2023-03-04T00:44:34;5.10;99.90
17202;DHT22;8717;53.588;10.176;2023-03-04T00:47:01;5.00;99.90
17202;DHT22;8717;53.588;10.176;2023-03-04T00:49:28;5.10;99.90
17202;DHT22;8717;53.588;10.176;2023-03-04T00:51:55;5.10;99.90
17202;DHT22;8717;53.588;10.176;2023-03-04T00:54:22;5.10;99.90
17202;DHT22;8717;53.588;10.176;2023-03-04T00:56:49;5.10;99.90
17202;DHT22;8717;53.588;10.176;2023-03-04T00:59:15;5.10;99.90
17202;DHT22;8717;53.588;10.176;2023-03-04T01:01:44;5.10;99.90
17202;DHT22;8717;53.588;10.176;2023-03-04T01:04:10;5.10;99.90
17202;DHT22;8717;53.588;10.176;2023-03-04T01:06:37;5.10;99.90
17202;DHT22;8717;53.588;10.176;2023-03-04T01:09:04;5.10;99.90
17202;DHT22;8717;53.588;10.176;2023-03-04T01:11:31;5.10;99.90
17202;DHT22;8717;53.588;10.176;2023-03-04T01:13:58;5.20;99.90
17202;DHT22;8717;53.588;10.176;2023-03-04T01:16:25;5.20;99.90
17202;DHT22;8717;53.588;10.176;2023-03-04T01:18:54;5.20;99.90
17202;DHT22;8717;53.588;10.176;2023-03-04T01:21:21;5.20;99.90
17202;DHT22;8717;53.588;10.176;2023-03-04T01:23:48;5.20;99.90
17202;DHT22;8717;53.588;10.176;2023-03-04T01:26:15;5.20;99.90
17202;DHT22;8717;53.588;10.176;2023-03-04T01:28:42;5.20;99.90
17202;DHT22;8717;53.588;10.176;2023-03-04T01:31:09;5.20;99.90
17202;DHT22;8717;53.588;10.176;2023-03-04T01:33:36;5.20;99.90
17202;DHT22;8717;53.588;10.176;2023-03-04T01:36:05;5.20;99.90
17202;DHT22;8717;53.588;10.176;2023-03-04T01:38:32;5.20;99.90
17202;DHT22;8717;53.588;10.176;2023-03-04T01:41:00;5.30;99.90
17202;DHT22;8717;53.588;10.176;2023-03-04T01:43:29;5.20;99.90
17202;DHT22;8717;53.588;10.176;2023-03-04T01:45:57;5.30;99.90
17202;DHT22;8717;53.588;10.176;2023-03-04T01:48:26;5.30;99.90
17202;DHT22;8717;53.588;10.176;2023-03-04T01:50:54;5.30;99.90
17202;DHT22;8717;53.588;10.176;2023-03-04T01:53:24;5.20;99.90
17202;DHT22;8717;53.588;10.176;2023-03-04T01:55:53;5.30;99.90
17202;DHT22;8717;53.588;10.176;2023-03-04T01:58:23;5.30;99.90
17202;DHT22;8717;53.588;10.176;2023-03-04T02:00:52;5.30;99.90
17202;DHT22;8717;53.588;10.176;2023-03-04T02:03:19;5.30;99.90
17202;DHT22;8717;53.588;10.176;2023-03-04T02:05:48;5.30;99.90
17202;DHT22;8717;53.588;10.176;2023-03-04T02:08:19;5.30;99.90
17202;DHT22;8717;53.588;10.176;2023-03-04T02:10:48;5.30;99.90
17202;DHT22;8717;53.588;10.176;2023-03-04T02:13:15;5.30;99.90
17202;DHT22;8717;53.588;10.176;2023-03-04T02:15:43;5.30;99.90
17202;DHT22;8717;53.588;10.176;2023-03-04T02:18:14;5.30;99.90
17202;DHT22;8717;53.588;10.176;2023-03-04T02:20:47;5.30;99.90
17202;DHT22;8717;53.588;10.176;2023-03-04T02:23:21;5.30;99.90
17202;DHT22;8717;53.588;10.176;2023-03-04T02:26:05;5.30;99.90
17202;DHT22;8717;53.588;10.176;2023-03-04T02:28:33;5.30;99.90
17202;DHT22;8717;53.588;10.176;2023-03-04T02:31:00;5.30;99.90
17202;DHT22;8717;53.588;10.176;2023-03-04T02:33:27;5.30;99.90
17202;DHT22;8717;53.588;10.176;2023-03-04T02:35:54;5.30;99.90
17202;DHT22;8717;53.588;10.176;2023-03-04T02:38:21;5.30;99.90
17202;DHT22;8717;53.588;10.176;2023-03-04T02:40:50;5.30;99.90
17202;DHT22;8717;53.588;10.176;2023-03-04T02:43:20;5.30;99.90
17202;DHT22;8717;53.588;10.176;2023-03-04T02:45:48;5.30;99.90
17202;DHT22;8717;53.588;10.176;2023-03-04T02:48:18;5.30;99.90
17202;DHT22;8717;53.588;10.176;2023-03-04T02:50:47;5.30;99.90
17202;DHT22;8717;53.588;10.176;2023-03-04T02:53:15;5.30;99.90
17202;DHT22;8717;53.588;10.176;2023-03-04T02:55:43;5.30;99.90
17202;DHT22;8717;53.588;10.176;2023-03-04T02:58:12;5.30;99.90
17202;DHT22;8717;53.588;10.176;2023-03-04T03:00:41;5.30;99.90
17202;DHT22;8717;53.588;10.176;2023-03-04T03:03:08;5.30;99.90
17202;DHT22;8717;53.588;10.176;2023-03-04T03:05:36;5.30;99.90
17202;DHT22;8717;53.588;10.176;2023-03-04T03:08:05;5.30;99.90
17202;DHT22;8717;53.588;10.176;2023-03-04T03:10:33;5.30;99.90
17202;DHT22;8717;53.588;10.176;2023-03-04T03:13:01;5.30;99.90
17202;DHT22;8717;53.588;10.176;2023-03-04T03:15:28;5.30;99.90
17202;DHT22;8717;53.588;10.176;2023-03-04T03:17:56;5.40;99.90
17202;DHT22;8717;53.588;10.176;2023-03-04T03:20:23;5.30;99.90
17202;DHT22;8717;53.588;10.176;2023-03-04T03:22:50;5.30;99.90
17202;DHT22;8717;53.588;10.176;2023-03-04T03:25:18;5.30;99.90
17202;DHT22;8717;53.588;10.176;2023-03-04T03:27:44;5.30;99.90
17202;DHT22;8717;53.588;10.176;2023-03-04T03:30:13;5.30;99.90
17202;DHT22;8717;53.588;10.176;2023-03-04T03:32:40;5.30;99.90
17202;DHT22;8717;53.588;10.176;2023-03-04T03:35:09;5.30;99.90
17202;DHT22;8717;53.588;10.176;2023-03-04T03:37:36;5.30;99.90
17202;DHT22;8717;53.588;10.176;2023-03-04T03:40:04;5.30;99.90
17202;DHT22;8717;53.588;10.176;2023-03-04T03:42:31;5.30;99.90
17202;DHT22;8717;53.588;10.176;2023-03-04T03:44:58;5.30;99.90
17202;DHT22;8717;53.588;10.176;2023-03-04T03:47:25;5.30;99.90
17202;DHT22;8717;53.588;10.176;2023-03-04T03:49:52;5.30;99.90
17202;DHT22;8717;53.588;10.176;2023-03-04T03:52:20;5.30;99.90
17202;DHT22;8717;53.588;10.176;2023-03-04T03:54:47;5.30;99.90
17202;DHT22;8717;53.588;10.176;2023-03-04T03:57:14;5.30;99.90
17202;DHT22;8717;53.588;10.176;2023-03-04T03:59:40;5.30;99.90
17202;DHT22;8717;53.588;10.176;2023-03-04T04:02:07;5.30;99.90
17202;DHT22;8717;53.588;10.176;2023-03-04T04:04:34;5.30;99.90
17202;DHT22;8717;53.588;10.176;2023-03-04T04:07:01;5.30;99.90
17202;DHT22;8717;53.588;10.176;2023-03-04T04:09:29;5.30;99.90
17202;DHT22;8717;53.588;10.176;2023-03-04T04:11:56;5.30;99.90
17202;DHT22;8717;53.588;10.176;2023-03-04T04:14:22;5.30;99.90
17202;DHT22;8717;53.588;10.176;2023-03-04T04:16:49;5.30;99.90
17202;DHT22;8717;53.588;10.176;2023-03-04T04:19:18;5.30;99.90
17202;DHT22;8717;53.588;10.176;2023-03-04T04:21:45;5.30;99.90
17202;DHT22;8717;53.588;10.176;2023-03-04T04:24:12;5.30;99.90
17202;DHT22;8717;53.588;10.176;2023-03-04T04:26:41;5.30;99.90
17202;DHT22;8717;53.588;10.176;2023-03-04T04:29:09;5.30;99.90
17202;DHT22;8717;53.588;10.176;2023-03-04T04:31:39;5.30;99.90
17202;DHT22;8717;53.588;10.176;2023-03-04T04:34:06;5.30;99.90
17202;DHT22;8717;53.588;10.176;2023-03-04T04:36:34;5.30;99.90
17202;DHT22;8717;53.588;10.176;2023-03-04T04:39:01;5.30;99.90
17202;DHT22;8717;53.588;10.176;2023-03-04T04:41:37;5.30;99.90
17202;DHT22;8717;53.588;10.176;2023-03-04T04:44:06;5.30;99.90
17202;DHT22;8717;53.588;10.176;2023-03-04T04:46:33;5.30;99.90
17202;DHT22;8717;53.588;10.176;2023-03-04T04:49:00;5.30;99.90
17202;DHT22;8717;53.588;10.176;2023-03-04T04:51:28;5.30;99.90
17202;DHT22;8717;53.588;10.176;2023-03-04T04:53:55;5.30;99.90
17202;DHT22;8717;53.588;10.176;2023-03-04T04:56:23;5.30;99.90
17202;DHT22;8717;53.588;10.176;2023-03-04T04:58:52;5.30;99.90
17202;DHT22;8717;53.588;10.176;2023-03-04T05:01:25;5.30;99.90
17202;DHT22;8717;53.588;10.176;2023-03-04T05:03:55;5.20;99.90
17202;DHT22;8717;53.588;10.176;2023-03-04T05:06:22;5.20;99.90
17202;DHT22;8717;53.588;10.176;2023-03-04T05:08:57;5.20;99.90
17202;DHT22;8717;53.588;10.176;2023-03-04T05:11:27;5.20;99.90
17202;DHT22;8717;53.588;10.176;2023-03-04T05:13:55;5.20;99.90
17202;DHT22;8717;53.588;10.176;2023-03-04T05:16:22;5.20;99.90
17202;DHT22;8717;53.588;10.176;2023-03-04T05:18:53;5.20;99.90
17202;DHT22;8717;53.588;10.176;2023-03-04T05:21:22;5.10;99.90
17202;DHT22;8717;53.588;10.176;2023-03-04T05:23:52;5.20;99.90
17202;DHT22;8717;53.588;10.176;2023-03-04T05:26:19;5.20;99.90
17202;DHT22;8717;53.588;10.176;2023-03-04T05:28:46;5.10;99.90
17202;DHT22;8717;53.588;10.176;2023-03-04T05:31:14;5.10;99.90
17202;DHT22;8717;53.588;10.176;2023-03-04T05:33:42;5.10;99.90
17202;DHT22;8717;53.588;10.176;2023-03-04T05:36:11;5.10;99.90
17202;DHT22;8717;53.588;10.176;2023-03-04T05:38:38;5.10;99.90
17202;DHT22;8717;53.588;10.176;2023-03-04T05:41:07;5.10;99.90
17202;DHT22;8717;53.588;10.176;2023-03-04T05:43:34;5.10;99.90
17202;DHT22;8717;53.588;10.176;2023-03-04T05:46:03;5.10;99.90
17202;DHT22;8717;53.588;10.176;2023-03-04T05:48:30;5.10;99.90
17202;DHT22;8717;53.588;10.176;2023-03-04T05:50:59;5.10;99.90
17202;DHT22;8717;53.588;10.176;2023-03-04T05:53:28;5.20;99.90
17202;DHT22;8717;53.588;10.176;2023-03-04T05:55:57;5.10;99.90
17202;DHT22;8717;53.588;10.176;2023-03-04T05:58:24;5.10;99.90
17202;DHT22;8717;53.588;10.176;2023-03-04T06:00:51;5.10;99.90
17202;DHT22;8717;53.588;10.176;2023-03-04T06:03:23;5.10;99.90
17202;DHT22;8717;53.588;10.176;2023-03-04T06:05:57;5.10;99.90
17202;DHT22;8717;53.588;10.176;2023-03-04T06:08:24;5.10;99.90
17202;DHT22;8717;53.588;10.176;2023-03-04T06:10:54;5.10;99.90
17202;DHT22;8717;53.588;10.176;2023-03-04T06:13:21;5.10;99.90
17202;DHT22;8717;53.588;10.176;2023-03-04T06:15:53;5.10;99.90
17202;DHT22;8717;53.588;10.176;2023-03-04T06:18:21;5.10;99.90
17202;DHT22;8717;53.588;10.176;2023-03-04T06:20:48;5.10;99.90
17202;DHT22;8717;53.588;10.176;2023-03-04T06:23:18;5.10;99.90
17202;DHT22;8717;53.588;10.176;2023-03-04T06:25:45;5.10;99.90
17202;DHT22;8717;53.588;10.176;2023-03-04T06:28:13;5.10;99.90
17202;DHT22;8717;53.588;10.176;2023-03-04T06:30:40;5.10;99.90
17202;DHT22;8717;53.588;10.176;2023-03-04T06:33:09;5.10;99.90
17202;DHT22;8717;53.588;10.176;2023-03-04T06:35:37;5.10;99.90
17202;DHT22;8717;53.588;10.176;2023-03-04T06:38:04;5.10;99.90
17202;DHT22;8717;53.588;10.176;2023-03-04T06:40:37;5.10;99.90
17202;DHT22;8717;53.588;10.176;2023-03-04T06:43:07;5.10;99.90
17202;DHT22;8717;53.588;10.176;2023-03-04T06:45:40;5.10;99.90
17202;DHT22;8717;53.588;10.176;2023-03-04T06:48:12;5.10;99.90
17202;DHT22;8717;53.588;10.176;2023-03-04T06:50:46;5.00;99.90
17202;DHT22;8717;53.588;10.176;2023-03-04T06:53:13;5.00;99.90
17202;DHT22;8717;53.588;10.176;2023-03-04T06:55:40;5.00;99.90
17202;DHT22;8717;53.588;10.176;2023-03-04T06:58:07;5.00;99.90
17202;DHT22;8717;53.588;10.176;2023-03-04T07:00:34;5.00;99.90
17202;DHT22;8717;53.588;10.176;2023-03-04T07:03:02;5.00;99.90
17202;DHT22;8717;53.588;10.176;2023-03-04T07:05:28;5.00;99.90
17202;DHT22;8717;53.588;10.176;2023-03-04T07:07:55;5.00;99.90
17202;DHT22;8717;53.588;10.176;2023-03-04T07:10:22;5.00;99.90
17202;DHT22;8717;53.588;10.176;2023-03-04T07:12:48;5.00;99.90
17202;DHT22;8717;53.588;10.176;2023-03-04T07:15:15;5.00;99.90
17202;DHT22;8717;53.588;10.176;2023-03-04T07:17:42;5.00;99.90
17202;DHT22;8717;53.588;10.176;2023-03-04T07:20:10;5.00;99.90
17202;DHT22;8717;53.588;10.176;2023-03-04T07:22:37;5.00;99.90
17202;DHT22;8717;53.588;10.176;2023-03-04T07:25:04;5.00;99.90
17202;DHT22;8717;53.588;10.176;2023-03-04T07:27:31;5.00;99.90
17202;DHT22;8717;53.588;10.176;2023-03-04T07:29:58;5.00;99.90
17202;DHT22;8717;53.588;10.176;2023-03-04T07:32:24;5.00;99.90
17202;DHT22;8717;53.588;10.176;2023-03-04T07:34:51;5.00;99.90
17202;DHT22;8717;53.588;10.176;2023-03-04T07:37:19;5.00;99.90
17202;DHT22;8717;53.588;10.176;2023-03-04T07:39:46;4.90;99.90
17202;DHT22;8717;53.588;10.176;2023-03-04T07:42:13;5.00;99.90
17202;DHT22;8717;53.588;10.176;2023-03-04T07:44:41;5.00;99.90
17202;DHT22;8717;53.588;10.176;2023-03-04T07:47:08;5.00;99.90
17202;DHT22;8717;53.588;10.176;2023-03-04T07:49:36;5.10;99.90
17202;DHT22;8717;53.588;10.176;2023-03-04T07:52:03;5.00;99.90
17202;DHT22;8717;53.588;10.176;2023-03-04T07:54:31;5.00;99.90
17202;DHT22;8717;53.588;10.176;2023-03-04T07:56:58;5.00;99.90
17202;DHT22;8717;53.588;10.176;2023-03-04T07:59:24;5.10;99.90
17202;DHT22;8717;53.588;10.176;2023-03-04T08:01:51;5.10;99.90
17202;DHT22;8717;53.588;10.176;2023-03-04T08:04:18;5.00;99.90
17202;DHT22;8717;53.588;10.176;2023-03-04T08:06:45;5.10;99.90
17202;DHT22;8717;53.588;10.176;2023-03-04T08:09:13;5.00;99.90
17202;DHT22;8717;53.588;10.176;2023-03-04T08:11:42;5.10;99.90
17202;DHT22;8717;53.588;10.176;2023-03-04T08:14:10;5.10;99.90
17202;DHT22;8717;53.588;10.176;2023-03-04T08:16:37;5.10;99.90
17202;DHT22;8717;53.588;10.176;2023-03-04T08:19:05;5.10;99.90
17202;DHT22;8717;53.588;10.176;2023-03-04T08:21:32;5.10;99.90
17202;DHT22;8717;53.588;10.176;2023-03-04T08:24:01;5.10;99.90
17202;DHT22;8717;53.588;10.176;2023-03-04T08:26:33;5.20;99.90
17202;DHT22;8717;53.588;10.176;2023-03-04T08:29:04;5.10;99.90
17202;DHT22;8717;53.588;10.176;2023-03-04T08:31:31;5.10;99.90
17202;DHT22;8717;53.588;10.176;2023-03-04T08:33:58;5.10;99.90
17202;DHT22;8717;53.588;10.176;2023-03-04T08:36:25;5.10;99.90
17202;DHT22;8717;53.588;10.176;2023-03-04T08:38:52;5.20;99.90
17202;DHT22;8717;53.588;10.176;2023-03-04T08:41:18;5.20;99.90
17202;DHT22;8717;53.588;10.176;2023-03-04T08:43:45;5.20;99.90
17202;DHT22;8717;53.588;10.176;2023-03-04T08:46:13;5.20;99.90
17202;DHT22;8717;53.588;10.176;2023-03-04T08:48:40;5.20;99.90
17202;DHT22;8717;53.588;10.176;2023-03-04T08:51:07;5.20;99.90
17202;DHT22;8717;53.588;10.176;2023-03-04T08:53:34;5.20;99.90
17202;DHT22;8717;53.588;10.176;2023-03-04T08:56:01;5.20;99.90
17202;DHT22;8717;53.588;10.176;2023-03-04T08:58:27;5.20;99.90
17202;DHT22;8717;53.588;10.176;2023-03-04T09:00:54;5.20;99.90
17202;DHT22;8717;53.588;10.176;2023-03-04T09:03:22;5.20;99.90
17202;DHT22;8717;53.588;10.176;2023-03-04T09:05:49;5.20;99.90
17202;DHT22;8717;53.588;10.176;2023-03-04T09:08:16;5.20;99.90
17202;DHT22;8717;53.588;10.176;2023-03-04T09:10:44;5.30;99.90
17202;DHT22;8717;53.588;10.176;2023-03-04T09:13:11;5.30;99.90
17202;DHT22;8717;53.588;10.176;2023-03-04T09:15:43;5.30;99.90
17202;DHT22;8717;53.588;10.176;2023-03-04T09:18:10;5.30;99.90
17202;DHT22;8717;53.588;10.176;2023-03-04T09:20:39;5.30;99.90
17202;DHT22;8717;53.588;10.176;2023-03-04T09:23:06;5.30;99.90
17202;DHT22;8717;53.588;10.176;2023-03-04T09:25:33;5.30;99.90
17202;DHT22;8717;53.588;10.176;2023-03-04T09:28:00;5.30;99.90
17202;DHT22;8717;53.588;10.176;2023-03-04T09:30:27;5.40;99.90
17202;DHT22;8717;53.588;10.176;2023-03-04T09:32:54;5.40;99.90
17202;DHT22;8717;53.588;10.176;2023-03-04T09:35:21;5.40;99.90
17202;DHT22;8717;53.588;10.176;2023-03-04T09:37:50;5.40;99.90
17202;DHT22;8717;53.588;10.176;2023-03-04T09:40:19;5.50;99.90
17202;DHT22;8717;53.588;10.176;2023-03-04T09:42:49;5.50;99.90
17202;DHT22;8717;53.588;10.176;2023-03-04T09:45:19;5.50;99.90
17202;DHT22;8717;53.588;10.176;2023-03-04T09:47:48;5.50;99.90
17202;DHT22;8717;53.588;10.176;2023-03-04T09:50:17;5.50;99.90
17202;DHT22;8717;53.588;10.176;2023-03-04T09:52:57;5.60;99.90
17202;DHT22;8717;53.588;10.176;2023-03-04T09:55:32;5.60;99.80
17202;DHT22;8717;53.588;10.176;2023-03-04T09:58:04;5.60;99.90
17202;DHT22;8717;53.588;10.176;2023-03-04T10:00:36;5.60;99.90
17202;DHT22;8717;53.588;10.176;2023-03-04T10:03:11;5.70;99.90
17202;DHT22;8717;53.588;10.176;2023-03-04T10:05:43;5.70;99.90
17202;DHT22;8717;53.588;10.176;2023-03-04T10:08:25;5.70;99.90
17202;DHT22;8717;53.588;10.176;2023-03-04T10:10:55;5.70;99.40
17202;DHT22;8717;53.588;10.176;2023-03-04T10:13:30;5.80;99.90
17202;DHT22;8717;53.588;10.176;2023-03-04T10:15:58;5.80;99.20
17202;DHT22;8717;53.588;10.176;2023-03-04T10:18:30;5.90;99.30
17202;DHT22;8717;53.588;10.176;2023-03-04T10:21:01;5.90;99.20
17202;DHT22;8717;53.588;10.176;2023-03-04T10:23:33;5.90;99.00
17202;DHT22;8717;53.588;10.176;2023-03-04T10:26:11;6.00;98.30
17202;DHT22;8717;53.588;10.176;2023-03-04T10:28:38;6.00;98.60
17202;DHT22;8717;53.588;10.176;2023-03-04T10:31:11;6.10;98.90
17202;DHT22;8717;53.588;10.176;2023-03-04T10:33:39;6.20;98.80
17202;DHT22;8717;53.588;10.176;2023-03-04T10:36:38;6.30;98.90
17202;DHT22;8717;53.588;10.176;2023-03-04T10:39:10;6.40;98.50
17202;DHT22;8717;53.588;10.176;2023-03-04T10:41:41;6.50;98.70
17202;DHT22;8717;53.588;10.176;2023-03-04T10:44:14;6.70;98.60
17202;DHT22;8717;53.588;10.176;2023-03-04T10:46:43;6.80;98.30
17202;DHT22;8717;53.588;10.176;2023-03-04T10:49:11;6.90;98.30
17202;DHT22;8717;53.588;10.176;2023-03-04T10:51:43;7.00;98.00
17202;DHT22;8717;53.588;10.176;2023-03-04T10:54:21;7.00;97.90
17202;DHT22;8717;53.588;10.176;2023-03-04T10:56:55;7.00;97.50
17202;DHT22;8717;53.588;10.176;2023-03-04T10:59:45;7.00;97.80
17202;DHT22;8717;53.588;10.176;2023-03-04T11:02:23;7.00;97.30
17202;DHT22;8717;53.588;10.176;2023-03-04T11:04:56;7.00;96.90
17202;DHT22;8717;53.588;10.176;2023-03-04T11:07:30;7.00;96.80
17202;DHT22;8717;53.588;10.176;2023-03-04T11:10:08;6.90;97.20
17202;DHT22;8717;53.588;10.176;2023-03-04T11:12:35;6.90;96.60
17202;DHT22;8717;53.588;10.176;2023-03-04T11:15:12;7.00;96.80
17202;DHT22;8717;53.588;10.176;2023-03-04T11:17:44;7.00;96.80
17202;DHT22;8717;53.588;10.176;2023-03-04T11:20:17;7.00;97.20
17202;DHT22;8717;53.588;10.176;2023-03-04T11:22:48;7.00;96.80
17202;DHT22;8717;53.588;10.176;2023-03-04T11:25:24;7.00;97.00
17202;DHT22;8717;53.588;10.176;2023-03-04T11:27:53;7.10;96.30
17202;DHT22;8717;53.588;10.176;2023-03-04T11:30:40;7.10;96.80
17202;DHT22;8717;53.588;10.176;2023-03-04T11:33:14;7.10;96.40
17202;DHT22;8717;53.588;10.176;2023-03-04T11:35:49;7.10;96.50
17202;DHT22;8717;53.588;10.176;2023-03-04T11:38:19;7.10;96.70
17202;DHT22;8717;53.588;10.176;2023-03-04T11:40:52;7.20;96.80
17202;DHT22;8717;53.588;10.176;2023-03-04T11:43:22;7.30;96.70
17202;DHT22;8717;53.588;10.176;2023-03-04T11:46:04;7.30;96.20
17202;DHT22;8717;53.588;10.176;2023-03-04T11:48:49;7.40;95.60
17202;DHT22;8717;53.588;10.176;2023-03-04T11:51:23;7.40;95.20
17202;DHT22;8717;53.588;10.176;2023-03-04T11:54:07;7.50;96.10
17202;DHT22;8717;53.588;10.176;2023-03-04T11:56:42;7.70;95.40
17202;DHT22;8717;53.588;10.176;2023-03-04T11:59:16;7.80;95.50
17202;DHT22;8717;53.588;10.176;2023-03-04T12:01:54;8.00;95.40
17202;DHT22;8717;53.588;10.176;2023-03-04T12:04:39;8.10;95.30
17202;DHT22;8717;53.588;10.176;2023-03-04T12:07:21;8.10;94.80
17202;DHT22;8717;53.588;10.176;2023-03-04T12:10:01;8.10;94.40
17202;DHT22;8717;53.588;10.176;2023-03-04T12:12:50;8.20;94.80
17202;DHT22;8717;53.588;10.176;2023-03-04T12:15:27;8.20;94.30
17202;DHT22;8717;53.588;10.176;2023-03-04T12:18:05;8.10;94.20
17202;DHT22;8717;53.588;10.176;2023-03-04T12:20:55;8.20;94.30
17202;DHT22;8717;53.588;10.176;2023-03-04T12:23:39;8.10;94.20
17202;DHT22;8717;53.588;10.176;2023-03-04T12:26:14;8.20;94.10
17202;DHT22;8717;53.588;10.176;2023-03-04T12:28:54;8.10;93.90
17202;DHT22;8717;53.588;10.176;2023-03-04T12:31:36;8.10;93.90
17202;DHT22;8717;53.588;10.176;2023-03-04T12:34:24;8.00;93.30
17202;DHT22;8717;53.588;10.176;2023-03-04T12:37:00;7.90;93.80
17202;DHT22;8717;53.588;10.176;2023-03-04T12:39:31;7.90;94.00
17202;DHT22;8717;53.588;10.176;2023-03-04T12:42:06;7.90;94.10
17202;DHT22;8717;53.588;10.176;2023-03-04T12:44:40;7.90;93.90
17202;DHT22;8717;53.588;10.176;2023-03-04T12:47:20;7.90;93.60
17202;DHT22;8717;53.588;10.176;2023-03-04T12:50:12;7.90;93.90
17202;DHT22;8717;53.588;10.176;2023-03-04T12:52:49;7.90;93.10
17202;DHT22;8717;53.588;10.176;2023-03-04T12:55:22;7.90;93.60
17202;DHT22;8717;53.588;10.176;2023-03-04T12:57:54;7.90;93.70
17202;DHT22;8717;53.588;10.176;2023-03-04T13:00:31;7.90;93.80
17202;DHT22;8717;53.588;10.176;2023-03-04T13:03:06;7.90;93.80
17202;DHT22;8717;53.588;10.176;2023-03-04T13:05:43;7.90;94.10
17202;DHT22;8717;53.588;10.176;2023-03-04T13:08:24;7.90;93.90
17202;DHT22;8717;53.588;10.176;2023-03-04T13:11:00;7.80;93.80
17202;DHT22;8717;53.588;10.176;2023-03-04T13:13:38;7.80;93.50
17202;DHT22;8717;53.588;10.176;2023-03-04T13:16:27;7.70;93.60
17202;DHT22;8717;53.588;10.176;2023-03-04T13:18:55;7.70;92.90
17202;DHT22;8717;53.588;10.176;2023-03-04T13:21:23;7.70;93.40
17202;DHT22;8717;53.588;10.176;2023-03-04T13:23:51;7.70;93.40
17202;DHT22;8717;53.588;10.176;2023-03-04T13:26:32;7.80;93.70
17202;DHT22;8717;53.588;10.176;2023-03-04T13:31:59;7.80;93.90
17202;DHT22;8717;53.588;10.176;2023-03-04T13:34:47;7.80;94.30
17202;DHT22;8717;53.588;10.176;2023-03-04T13:37:29;7.80;94.20
17202;DHT22;8717;53.588;10.176;2023-03-04T13:40:31;7.80;93.90
17202;DHT22;8717;53.588;10.176;2023-03-04T13:43:23;7.80;94.00
17202;DHT22;8717;53.588;10.176;2023-03-04T13:45:51;7.80;93.70
17202;DHT22;8717;53.588;10.176;2023-03-04T13:48:31;7.80;94.00
17202;DHT22;8717;53.588;10.176;2023-03-04T13:51:00;7.80;93.60
17202;DHT22;8717;53.588;10.176;2023-03-04T13:53:44;7.80;94.00
17202;DHT22;8717;53.588;10.176;2023-03-04T13:56:30;7.80;93.60
17202;DHT22;8717;53.588;10.176;2023-03-04T13:59:23;7.80;93.90
17202;DHT22;8717;53.588;10.176;2023-03-04T14:01:56;7.70;93.80
17202;DHT22;8717;53.588;10.176;2023-03-04T14:04:31;7.60;94.10
17202;DHT22;8717;53.588;10.176;2023-03-04T14:07:00;7.60;93.70
17202;DHT22;8717;53.588;10.176;2023-03-04T14:09:29;7.50;94.00
17202;DHT22;8717;53.588;10.176;2023-03-04T14:11:57;7.40;94.00
17202;DHT22;8717;53.588;10.176;2023-03-04T14:14:27;7.30;94.10
17202;DHT22;8717;53.588;10.176;2023-03-04T14:16:57;7.30;94.20
17202;DHT22;8717;53.588;10.176;2023-03-04T14:19:28;7.20;94.20
17202;DHT22;8717;53.588;10.176;2023-03-04T14:21:56;7.20;94.50
17202;DHT22;8717;53.588;10.176;2023-03-04T14:24:23;7.10;94.60
17202;DHT22;8717;53.588;10.176;2023-03-04T14:27:03;7.10;94.40
17202;DHT22;8717;53.588;10.176;2023-03-04T14:29:30;7.00;94.30
17202;DHT22;8717;53.588;10.176;2023-03-04T14:31:57;7.00;94.50
17202;DHT22;8717;53.588;10.176;2023-03-04T14:34:30;7.00;94.40
17202;DHT22;8717;53.588;10.176;2023-03-04T14:36:58;7.00;94.50
17202;DHT22;8717;53.588;10.176;2023-03-04T14:39:27;6.90;94.70
17202;DHT22;8717;53.588;10.176;2023-03-04T14:41:57;6.90;94.60
17202;DHT22;8717;53.588;10.176;2023-03-04T14:44:29;6.90;94.50
17202;DHT22;8717;53.588;10.176;2023-03-04T14:47:07;6.80;94.60
17202;DHT22;8717;53.588;10.176;2023-03-04T14:49:36;6.80;94.60
17202;DHT22;8717;53.588;10.176;2023-03-04T14:52:04;6.80;94.80
17202;DHT22;8717;53.588;10.176;2023-03-04T14:54:33;6.80;94.70
17202;DHT22;8717;53.588;10.176;2023-03-04T14:57:15;6.80;94.70
17202;DHT22;8717;53.588;10.176;2023-03-04T14:59:45;6.70;94.60
17202;DHT22;8717;53.588;10.176;2023-03-04T15:02:23;6.70;94.60
17202;DHT22;8717;53.588;10.176;2023-03-04T15:04:57;6.60;94.70
17202;DHT22;8717;53.588;10.176;2023-03-04T15:07:30;6.60;94.70
17202;DHT22;8717;53.588;10.176;2023-03-04T15:09:57;6.60;94.80
17202;DHT22;8717;53.588;10.176;2023-03-04T15:12:26;6.60;94.90
17202;DHT22;8717;53.588;10.176;2023-03-04T15:14:55;6.50;94.90
17202;DHT22;8717;53.588;10.176;2023-03-04T15:17:26;6.60;95.10
17202;DHT22;8717;53.588;10.176;2023-03-04T15:20:20;6.50;95.00
17202;DHT22;8717;53.588;10.176;2023-03-04T15:22:59;6.50;94.80
17202;DHT22;8717;53.588;10.176;2023-03-04T15:25:26;6.50;95.00
17202;DHT22;8717;53.588;10.176;2023-03-04T15:27:53;6.50;95.10
17202;DHT22;8717;53.588;10.176;2023-03-04T15:30:24;6.40;95.20
17202;DHT22;8717;53.588;10.176;2023-03-04T15:32:52;6.40;95.30
17202;DHT22;8717;53.588;10.176;2023-03-04T15:35:21;6.40;95.60
17202;DHT22;8717;53.588;10.176;2023-03-04T15:37:49;6.30;95.70
17202;DHT22;8717;53.588;10.176;2023-03-04T15:40:24;6.30;95.80
17202;DHT22;8717;53.588;10.176;2023-03-04T15:42:51;6.20;95.80
17202;DHT22;8717;53.588;10.176;2023-03-04T15:45:21;6.20;96.00
17202;DHT22;8717;53.588;10.176;2023-03-04T15:47:48;6.10;95.90
17202;DHT22;8717;53.588;10.176;2023-03-04T15:50:15;6.10;96.00
17202;DHT22;8717;53.588;10.176;2023-03-04T15:52:43;6.10;96.20
17202;DHT22;8717;53.588;10.176;2023-03-04T15:55:14;6.00;96.10
17202;DHT22;8717;53.588;10.176;2023-03-04T15:57:42;5.90;96.10
17202;DHT22;8717;53.588;10.176;2023-03-04T16:00:10;5.80;96.20
17202;DHT22;8717;53.588;10.176;2023-03-04T16:02:38;5.80;96.30
17202;DHT22;8717;53.588;10.176;2023-03-04T16:05:05;5.70;96.30
17202;DHT22;8717;53.588;10.176;2023-03-04T16:07:33;5.70;96.40